Hawk Lake, Canada
Current Conditions -  °F | °C
As of 5:00 AM on Tuesday 21 Oct 2014 (Local Time) from CYQK Reporting Station
Overcast Overcast  
Wind Chill: 30°   Ceiling: 1200
Heat Index: 37°   Visibility: 15mi
Dew Point: 34°   Wind: 12mph
Humidity: 87%   Direction: 150°SSE
Pressure: 30.13"   Gusts: NA
Location:  49.8°N, 94.01°W
Report Text: CYQK 211000Z 15010KT 15SM OVC012 03/01 A3013 RMK SC8 SLP216
Loading
Personal Weather Stations






























Interactive Weather Map
Tropical Storm Tracking
New forecast layout! Learn more

10-Day Weather Forecast

Advertisements
Track Severe Weather on mobile